sensor_id;sensor_type;location;lat;lon;timestamp;temperature;humidity
9919;DHT22;4998;51.024;13.828;2023-03-26T00:00:48;13.40;65.80
9919;DHT22;4998;51.024;13.828;2023-03-26T00:03:20;13.40;65.50
9919;DHT22;4998;51.024;13.828;2023-03-26T00:05:48;13.40;65.20
9919;DHT22;4998;51.024;13.828;2023-03-26T00:08:15;13.40;64.90
9919;DHT22;4998;51.024;13.828;2023-03-26T00:10:43;13.30;64.80
9919;DHT22;4998;51.024;13.828;2023-03-26T00:13:10;13.30;64.80
9919;DHT22;4998;51.024;13.828;2023-03-26T00:15:38;13.20;64.90
9919;DHT22;4998;51.024;13.828;2023-03-26T00:18:06;13.20;64.80
9919;DHT22;4998;51.024;13.828;2023-03-26T00:20:42;13.20;65.00
9919;DHT22;4998;51.024;13.828;2023-03-26T00:23:10;13.20;65.10
9919;DHT22;4998;51.024;13.828;2023-03-26T00:25:38;13.10;65.00
9919;DHT22;4998;51.024;13.828;2023-03-26T00:28:06;13.10;65.00
9919;DHT22;4998;51.024;13.828;2023-03-26T00:30:33;13.10;65.00
9919;DHT22;4998;51.024;13.828;2023-03-26T00:33:01;13.10;65.10
9919;DHT22;4998;51.024;13.828;2023-03-26T00:35:28;13.10;65.00
9919;DHT22;4998;51.024;13.828;2023-03-26T00:37:57;13.10;65.10
9919;DHT22;4998;51.024;13.828;2023-03-26T00:40:24;13.10;65.40
9919;DHT22;4998;51.024;13.828;2023-03-26T00:42:51;13.10;65.50
9919;DHT22;4998;51.024;13.828;2023-03-26T00:45:18;13.10;66.50
9919;DHT22;4998;51.024;13.828;2023-03-26T00:47:46;13.10;65.70
9919;DHT22;4998;51.024;13.828;2023-03-26T00:50:14;13.10;65.70
9919;DHT22;4998;51.024;13.828;2023-03-26T00:52:41;13.10;65.90
9919;DHT22;4998;51.024;13.828;2023-03-26T00:55:11;13.00;65.80
9919;DHT22;4998;51.024;13.828;2023-03-26T00:57:40;13.00;65.90
9919;DHT22;4998;51.024;13.828;2023-03-26T01:00:14;13.00;65.80
9919;DHT22;4998;51.024;13.828;2023-03-26T01:02:41;13.00;66.00
9919;DHT22;4998;51.024;13.828;2023-03-26T01:05:45;12.90;65.80
9919;DHT22;4998;51.024;13.828;2023-03-26T01:08:26;12.90;65.90
9919;DHT22;4998;51.024;13.828;2023-03-26T01:10:57;12.90;66.10
9919;DHT22;4998;51.024;13.828;2023-03-26T01:13:32;12.90;66.00
9919;DHT22;4998;51.024;13.828;2023-03-26T01:16:00;12.80;66.20
9919;DHT22;4998;51.024;13.828;2023-03-26T01:18:30;12.80;66.30
9919;DHT22;4998;51.024;13.828;2023-03-26T01:21:00;12.80;66.40
9919;DHT22;4998;51.024;13.828;2023-03-26T01:23:40;12.80;66.60
9919;DHT22;4998;51.024;13.828;2023-03-26T01:26:18;12.80;66.70
9919;DHT22;4998;51.024;13.828;2023-03-26T01:28:50;12.80;66.70
9919;DHT22;4998;51.024;13.828;2023-03-26T01:31:23;12.80;66.80
9919;DHT22;4998;51.024;13.828;2023-03-26T01:33:58;12.80;66.80
9919;DHT22;4998;51.024;13.828;2023-03-26T01:36:34;12.80;66.80
9919;DHT22;4998;51.024;13.828;2023-03-26T01:39:08;12.80;66.80
9919;DHT22;4998;51.024;13.828;2023-03-26T01:41:47;12.80;66.90
9919;DHT22;4998;51.024;13.828;2023-03-26T01:44:19;12.80;67.00
9919;DHT22;4998;51.024;13.828;2023-03-26T01:46:49;12.80;66.80
9919;DHT22;4998;51.024;13.828;2023-03-26T01:49:17;12.80;67.00
9919;DHT22;4998;51.024;13.828;2023-03-26T01:51:44;12.80;66.90
9919;DHT22;4998;51.024;13.828;2023-03-26T01:54:15;12.80;66.80
9919;DHT22;4998;51.024;13.828;2023-03-26T01:56:54;12.80;67.10
9919;DHT22;4998;51.024;13.828;2023-03-26T01:59:45;12.80;67.00
9919;DHT22;4998;51.024;13.828;2023-03-26T02:02:21;12.70;66.80
9919;DHT22;4998;51.024;13.828;2023-03-26T02:04:55;12.80;67.00
9919;DHT22;4998;51.024;13.828;2023-03-26T02:07:25;12.70;66.80
9919;DHT22;4998;51.024;13.828;2023-03-26T02:10:03;12.70;66.80
9919;DHT22;4998;51.024;13.828;2023-03-26T02:12:36;12.60;67.00
9919;DHT22;4998;51.024;13.828;2023-03-26T02:15:04;12.60;67.10
9919;DHT22;4998;51.024;13.828;2023-03-26T02:17:32;12.60;67.20
9919;DHT22;4998;51.024;13.828;2023-03-26T02:19:59;12.50;67.30
9919;DHT22;4998;51.024;13.828;2023-03-26T02:22:31;12.50;67.50
9919;DHT22;4998;51.024;13.828;2023-03-26T02:25:07;12.50;67.60
9919;DHT22;4998;51.024;13.828;2023-03-26T02:27:36;12.40;67.90
9919;DHT22;4998;51.024;13.828;2023-03-26T02:30:06;12.40;68.00
9919;DHT22;4998;51.024;13.828;2023-03-26T02:32:34;12.40;68.20
9919;DHT22;4998;51.024;13.828;2023-03-26T02:35:04;12.40;68.20
9919;DHT22;4998;51.024;13.828;2023-03-26T02:37:32;12.40;68.40
9919;DHT22;4998;51.024;13.828;2023-03-26T02:39:59;12.40;68.60
9919;DHT22;4998;51.024;13.828;2023-03-26T02:42:26;12.40;68.60
9919;DHT22;4998;51.024;13.828;2023-03-26T02:44:55;12.40;68.90
9919;DHT22;4998;51.024;13.828;2023-03-26T02:47:23;12.40;69.10
9919;DHT22;4998;51.024;13.828;2023-03-26T02:49:50;12.40;69.30
9919;DHT22;4998;51.024;13.828;2023-03-26T02:52:17;12.40;69.30
9919;DHT22;4998;51.024;13.828;2023-03-26T02:54:44;12.30;69.50
9919;DHT22;4998;51.024;13.828;2023-03-26T02:57:11;12.40;70.00
9919;DHT22;4998;51.024;13.828;2023-03-26T02:59:38;12.30;70.00
9919;DHT22;4998;51.024;13.828;2023-03-26T03:02:07;12.30;70.00
9919;DHT22;4998;51.024;13.828;2023-03-26T03:04:34;12.30;70.20
9919;DHT22;4998;51.024;13.828;2023-03-26T03:07:01;12.30;71.10
9919;DHT22;4998;51.024;13.828;2023-03-26T03:09:28;12.30;70.30
9919;DHT22;4998;51.024;13.828;2023-03-26T03:11:55;12.30;70.50
9919;DHT22;4998;51.024;13.828;2023-03-26T03:14:22;12.20;70.60
9919;DHT22;4998;51.024;13.828;2023-03-26T03:16:50;12.20;70.50
9919;DHT22;4998;51.024;13.828;2023-03-26T03:19:19;12.20;70.70
9919;DHT22;4998;51.024;13.828;2023-03-26T03:21:46;12.20;70.80
9919;DHT22;4998;51.024;13.828;2023-03-26T03:24:13;12.20;70.80
9919;DHT22;4998;51.024;13.828;2023-03-26T03:26:43;12.20;70.90
9919;DHT22;4998;51.024;13.828;2023-03-26T03:29:12;12.20;71.10
9919;DHT22;4998;51.024;13.828;2023-03-26T03:31:39;12.20;71.10
9919;DHT22;4998;51.024;13.828;2023-03-26T03:34:07;12.20;71.40
9919;DHT22;4998;51.024;13.828;2023-03-26T03:36:36;12.20;71.40
9919;DHT22;4998;51.024;13.828;2023-03-26T03:39:04;12.20;71.70
9919;DHT22;4998;51.024;13.828;2023-03-26T03:41:31;12.20;71.80
9919;DHT22;4998;51.024;13.828;2023-03-26T03:43:58;12.20;71.90
9919;DHT22;4998;51.024;13.828;2023-03-26T03:46:26;12.20;72.20
9919;DHT22;4998;51.024;13.828;2023-03-26T03:48:53;12.20;72.30
9919;DHT22;4998;51.024;13.828;2023-03-26T03:51:20;12.20;72.30
9919;DHT22;4998;51.024;13.828;2023-03-26T03:53:49;12.20;72.40
9919;DHT22;4998;51.024;13.828;2023-03-26T03:56:17;12.20;72.50
9919;DHT22;4998;51.024;13.828;2023-03-26T03:58:48;12.20;72.60
9919;DHT22;4998;51.024;13.828;2023-03-26T04:01:16;12.20;72.60
9919;DHT22;4998;51.024;13.828;2023-03-26T04:03:47;12.20;72.90
9919;DHT22;4998;51.024;13.828;2023-03-26T04:06:15;12.20;72.80
9919;DHT22;4998;51.024;13.828;2023-03-26T04:08:44;12.20;73.10
9919;DHT22;4998;51.024;13.828;2023-03-26T04:11:13;12.20;73.20
9919;DHT22;4998;51.024;13.828;2023-03-26T04:13:40;12.20;73.60
9919;DHT22;4998;51.024;13.828;2023-03-26T04:16:08;12.10;73.30
9919;DHT22;4998;51.024;13.828;2023-03-26T04:18:36;12.20;73.60
9919;DHT22;4998;51.024;13.828;2023-03-26T04:21:04;12.10;73.70
9919;DHT22;4998;51.024;13.828;2023-03-26T04:23:32;12.10;73.90
9919;DHT22;4998;51.024;13.828;2023-03-26T04:26:01;12.10;74.10
9919;DHT22;4998;51.024;13.828;2023-03-26T04:28:32;12.10;74.10
9919;DHT22;4998;51.024;13.828;2023-03-26T04:31:01;12.10;74.10
9919;DHT22;4998;51.024;13.828;2023-03-26T04:33:32;12.10;74.20
9919;DHT22;4998;51.024;13.828;2023-03-26T04:36:00;12.10;74.20
9919;DHT22;4998;51.024;13.828;2023-03-26T04:38:29;12.10;74.20
9919;DHT22;4998;51.024;13.828;2023-03-26T04:40:58;12.10;74.20
9919;DHT22;4998;51.024;13.828;2023-03-26T04:43:28;12.10;74.30
9919;DHT22;4998;51.024;13.828;2023-03-26T04:46:01;12.10;74.30
9919;DHT22;4998;51.024;13.828;2023-03-26T04:48:30;12.10;74.40
9919;DHT22;4998;51.024;13.828;2023-03-26T04:50:57;12.10;74.40
9919;DHT22;4998;51.024;13.828;2023-03-26T04:53:25;12.10;74.30
9919;DHT22;4998;51.024;13.828;2023-03-26T04:55:58;12.20;74.30
9919;DHT22;4998;51.024;13.828;2023-03-26T04:58:26;12.20;74.30
9919;DHT22;4998;51.024;13.828;2023-03-26T05:00:57;12.20;74.30
9919;DHT22;4998;51.024;13.828;2023-03-26T05:03:27;12.20;74.30
9919;DHT22;4998;51.024;13.828;2023-03-26T05:05:57;12.20;74.30
9919;DHT22;4998;51.024;13.828;2023-03-26T05:08:25;12.20;74.20
9919;DHT22;4998;51.024;13.828;2023-03-26T05:10:54;12.30;74.30
9919;DHT22;4998;51.024;13.828;2023-03-26T05:13:21;12.30;74.20
9919;DHT22;4998;51.024;13.828;2023-03-26T05:15:49;12.30;74.10
9919;DHT22;4998;51.024;13.828;2023-03-26T05:18:17;12.30;73.90
9919;DHT22;4998;51.024;13.828;2023-03-26T05:20:45;12.30;73.90
9919;DHT22;4998;51.024;13.828;2023-03-26T05:23:13;12.30;73.70
9919;DHT22;4998;51.024;13.828;2023-03-26T05:25:40;12.30;73.60
9919;DHT22;4998;51.024;13.828;2023-03-26T05:28:08;12.30;73.60
9919;DHT22;4998;51.024;13.828;2023-03-26T05:30:36;12.40;73.70
9919;DHT22;4998;51.024;13.828;2023-03-26T05:33:03;12.40;73.50
9919;DHT22;4998;51.024;13.828;2023-03-26T05:35:31;12.30;73.40
9919;DHT22;4998;51.024;13.828;2023-03-26T05:38:00;12.40;73.50
9919;DHT22;4998;51.024;13.828;2023-03-26T05:40:27;12.40;73.40
9919;DHT22;4998;51.024;13.828;2023-03-26T05:42:54;12.40;73.30
9919;DHT22;4998;51.024;13.828;2023-03-26T05:45:21;12.40;73.30
9919;DHT22;4998;51.024;13.828;2023-03-26T05:47:48;12.40;73.30
9919;DHT22;4998;51.024;13.828;2023-03-26T05:50:19;12.40;73.30
9919;DHT22;4998;51.024;13.828;2023-03-26T05:52:46;12.40;73.20
9919;DHT22;4998;51.024;13.828;2023-03-26T05:55:15;12.40;73.10
9919;DHT22;4998;51.024;13.828;2023-03-26T05:57:43;12.40;73.10
9919;DHT22;4998;51.024;13.828;2023-03-26T06:00:11;12.40;73.10
9919;DHT22;4998;51.024;13.828;2023-03-26T06:02:40;12.40;73.20
9919;DHT22;4998;51.024;13.828;2023-03-26T06:05:08;12.40;73.10
9919;DHT22;4998;51.024;13.828;2023-03-26T06:07:37;12.40;73.10
9919;DHT22;4998;51.024;13.828;2023-03-26T06:10:05;12.40;73.10
9919;DHT22;4998;51.024;13.828;2023-03-26T06:12:33;12.50;73.30
9919;DHT22;4998;51.024;13.828;2023-03-26T06:15:01;12.50;73.10
9919;DHT22;4998;51.024;13.828;2023-03-26T06:17:28;12.50;73.00
9919;DHT22;4998;51.024;13.828;2023-03-26T06:19:55;12.60;73.10
9919;DHT22;4998;51.024;13.828;2023-03-26T06:22:23;12.60;73.00
9919;DHT22;4998;51.024;13.828;2023-03-26T06:24:50;12.60;73.00
9919;DHT22;4998;51.024;13.828;2023-03-26T06:27:18;12.60;73.00
9919;DHT22;4998;51.024;13.828;2023-03-26T06:29:46;12.60;73.00
9919;DHT22;4998;51.024;13.828;2023-03-26T06:32:14;12.70;73.10
9919;DHT22;4998;51.024;13.828;2023-03-26T06:34:41;12.70;73.10
9919;DHT22;4998;51.024;13.828;2023-03-26T06:37:08;12.70;73.00
9919;DHT22;4998;51.024;13.828;2023-03-26T06:39:35;12.70;72.90
9919;DHT22;4998;51.024;13.828;2023-03-26T06:42:02;12.80;73.10
9919;DHT22;4998;51.024;13.828;2023-03-26T06:44:29;12.80;73.10
9919;DHT22;4998;51.024;13.828;2023-03-26T06:46:58;12.80;73.10
9919;DHT22;4998;51.024;13.828;2023-03-26T06:49:25;12.80;73.10
9919;DHT22;4998;51.024;13.828;2023-03-26T06:51:52;12.80;73.20
9919;DHT22;4998;51.024;13.828;2023-03-26T06:54:19;12.90;73.10
9919;DHT22;4998;51.024;13.828;2023-03-26T06:56:47;12.90;73.00
9919;DHT22;4998;51.024;13.828;2023-03-26T06:59:14;12.90;73.00
9919;DHT22;4998;51.024;13.828;2023-03-26T07:01:42;13.00;73.00
9919;DHT22;4998;51.024;13.828;2023-03-26T07:04:10;13.00;73.00
9919;DHT22;4998;51.024;13.828;2023-03-26T07:06:37;13.00;73.10
9919;DHT22;4998;51.024;13.828;2023-03-26T07:09:04;13.10;73.30
9919;DHT22;4998;51.024;13.828;2023-03-26T07:11:32;13.10;73.10
9919;DHT22;4998;51.024;13.828;2023-03-26T07:13:59;13.10;72.80
9919;DHT22;4998;51.024;13.828;2023-03-26T07:16:26;13.20;73.60
9919;DHT22;4998;51.024;13.828;2023-03-26T07:18:53;13.20;72.60
9919;DHT22;4998;51.024;13.828;2023-03-26T07:21:22;13.30;72.40
9919;DHT22;4998;51.024;13.828;2023-03-26T07:23:50;13.30;72.20
9919;DHT22;4998;51.024;13.828;2023-03-26T07:26:25;13.30;71.80
9919;DHT22;4998;51.024;13.828;2023-03-26T07:28:59;13.30;71.30
9919;DHT22;4998;51.024;13.828;2023-03-26T07:31:30;13.30;71.10
9919;DHT22;4998;51.024;13.828;2023-03-26T07:34:04;13.30;71.00
9919;DHT22;4998;51.024;13.828;2023-03-26T07:36:41;13.30;70.90
9919;DHT22;4998;51.024;13.828;2023-03-26T07:39:24;13.30;70.70
9919;DHT22;4998;51.024;13.828;2023-03-26T07:42:00;13.40;70.70
9919;DHT22;4998;51.024;13.828;2023-03-26T07:44:40;13.30;70.30
9919;DHT22;4998;51.024;13.828;2023-03-26T07:47:19;13.40;70.20
9919;DHT22;4998;51.024;13.828;2023-03-26T07:49:52;13.30;69.90
9919;DHT22;4998;51.024;13.828;2023-03-26T07:52:21;13.40;70.10
9919;DHT22;4998;51.024;13.828;2023-03-26T07:54:49;13.40;70.20
9919;DHT22;4998;51.024;13.828;2023-03-26T07:57:24;13.40;70.20
9919;DHT22;4998;51.024;13.828;2023-03-26T07:59:57;13.40;70.20
9919;DHT22;4998;51.024;13.828;2023-03-26T08:05:39;13.50;70.10
9919;DHT22;4998;51.024;13.828;2023-03-26T08:08:14;13.50;70.00
9919;DHT22;4998;51.024;13.828;2023-03-26T08:10:54;13.60;69.80
9919;DHT22;4998;51.024;13.828;2023-03-26T08:13:38;13.60;69.80
9919;DHT22;4998;51.024;13.828;2023-03-26T08:16:13;13.60;70.50
9919;DHT22;4998;51.024;13.828;2023-03-26T08:18:45;13.60;69.70
9919;DHT22;4998;51.024;13.828;2023-03-26T08:21:19;13.70;69.80
9919;DHT22;4998;51.024;13.828;2023-03-26T08:23:57;13.70;69.70
9919;DHT22;4998;51.024;13.828;2023-03-26T08:26:33;13.70;69.60
9919;DHT22;4998;51.024;13.828;2023-03-26T08:29:15;13.70;69.50
9919;DHT22;4998;51.024;13.828;2023-03-26T08:31:44;13.70;69.40
9919;DHT22;4998;51.024;13.828;2023-03-26T08:34:13;13.70;69.40
9919;DHT22;4998;51.024;13.828;2023-03-26T08:36:40;13.80;69.30
9919;DHT22;4998;51.024;13.828;2023-03-26T08:39:09;13.80;69.10
9919;DHT22;4998;51.024;13.828;2023-03-26T08:50:52;13.90;68.00
9919;DHT22;4998;51.024;13.828;2023-03-26T08:53:49;14.00;67.70
9919;DHT22;4998;51.024;13.828;2023-03-26T08:56:34;14.00;67.40
9919;DHT22;4998;51.024;13.828;2023-03-26T09:02:52;14.00;66.70
9919;DHT22;4998;51.024;13.828;2023-03-26T09:05:44;14.00;66.40
9919;DHT22;4998;51.024;13.828;2023-03-26T09:11:56;14.00;66.50
9919;DHT22;4998;51.024;13.828;2023-03-26T09:20:47;14.10;66.00
9919;DHT22;4998;51.024;13.828;2023-03-26T09:27:38;14.10;65.50
9919;DHT22;4998;51.024;13.828;2023-03-26T09:30:40;14.20;65.80
9919;DHT22;4998;51.024;13.828;2023-03-26T09:36:22;14.30;65.00
9919;DHT22;4998;51.024;13.828;2023-03-26T09:39:09;14.30;64.60
9919;DHT22;4998;51.024;13.828;2023-03-26T09:41:43;14.40;64.40
9919;DHT22;4998;51.024;13.828;2023-03-26T09:44:54;14.40;64.80
9919;DHT22;4998;51.024;13.828;2023-03-26T09:47:43;14.40;65.10
9919;DHT22;4998;51.024;13.828;2023-03-26T09:50:32;14.50;64.30
9919;DHT22;4998;51.024;13.828;2023-03-26T09:53:13;14.50;64.40
9919;DHT22;4998;51.024;13.828;2023-03-26T09:55:52;14.50;64.00
9919;DHT22;4998;51.024;13.828;2023-03-26T10:01:29;14.70;63.70
9919;DHT22;4998;51.024;13.828;2023-03-26T10:07:20;14.80;63.30
9919;DHT22;4998;51.024;13.828;2023-03-26T10:10:00;14.80;63.20
9919;DHT22;4998;51.024;13.828;2023-03-26T10:12:33;14.90;63.50
9919;DHT22;4998;51.024;13.828;2023-03-26T10:15:19;15.00;63.50
9919;DHT22;4998;51.024;13.828;2023-03-26T10:18:03;15.10;63.10
9919;DHT22;4998;51.024;13.828;2023-03-26T10:20:42;15.20;62.30
9919;DHT22;4998;51.024;13.828;2023-03-26T10:23:42;15.30;62.30
9919;DHT22;4998;51.024;13.828;2023-03-26T10:26:34;15.40;61.70
9919;DHT22;4998;51.024;13.828;2023-03-26T10:29:17;15.50;61.50
9919;DHT22;4998;51.024;13.828;2023-03-26T10:31:51;15.50;61.00
9919;DHT22;4998;51.024;13.828;2023-03-26T10:34:37;15.60;60.60
9919;DHT22;4998;51.024;13.828;2023-03-26T10:37:14;15.70;59.90
9919;DHT22;4998;51.024;13.828;2023-03-26T10:39:59;15.70;61.00
9919;DHT22;4998;51.024;13.828;2023-03-26T10:42:43;15.70;60.20
9919;DHT22;4998;51.024;13.828;2023-03-26T10:45:35;15.80;60.50
9919;DHT22;4998;51.024;13.828;2023-03-26T10:48:35;15.80;59.50
9919;DHT22;4998;51.024;13.828;2023-03-26T10:51:35;15.90;59.30
9919;DHT22;4998;51.024;13.828;2023-03-26T10:54:11;15.90;59.40
9919;DHT22;4998;51.024;13.828;2023-03-26T10:56:44;16.00;59.20
9919;DHT22;4998;51.024;13.828;2023-03-26T10:59:13;16.10;58.70
9919;DHT22;4998;51.024;13.828;2023-03-26T11:01:45;16.10;58.30
9919;DHT22;4998;51.024;13.828;2023-03-26T11:04:26;16.10;58.20
9919;DHT22;4998;51.024;13.828;2023-03-26T11:07:06;16.10;58.20
9919;DHT22;4998;51.024;13.828;2023-03-26T11:09:42;16.10;58.20
9919;DHT22;4998;51.024;13.828;2023-03-26T11:12:16;16.10;58.00
9919;DHT22;4998;51.024;13.828;2023-03-26T11:14:55;16.10;57.40
9919;DHT22;4998;51.024;13.828;2023-03-26T11:17:32;16.10;57.30
9919;DHT22;4998;51.024;13.828;2023-03-26T11:20:08;16.00;57.40
9919;DHT22;4998;51.024;13.828;2023-03-26T11:22:45;16.00;57.50
9919;DHT22;4998;51.024;13.828;2023-03-26T11:25:45;16.00;57.60
9919;DHT22;4998;51.024;13.828;2023-03-26T11:28:38;16.00;58.00
9919;DHT22;4998;51.024;13.828;2023-03-26T11:31:18;16.00;57.90
9919;DHT22;4998;51.024;13.828;2023-03-26T11:34:01;16.00;57.90
9919;DHT22;4998;51.024;13.828;2023-03-26T11:36:34;16.10;58.30
9919;DHT22;4998;51.024;13.828;2023-03-26T11:39:18;16.20;58.80
9919;DHT22;4998;51.024;13.828;2023-03-26T11:41:54;16.30;58.90
9919;DHT22;4998;51.024;13.828;2023-03-26T11:44:31;16.40;58.70
9919;DHT22;4998;51.024;13.828;2023-03-26T11:47:06;16.60;58.50
9919;DHT22;4998;51.024;13.828;2023-03-26T11:49:36;16.70;58.40
9919;DHT22;4998;51.024;13.828;2023-03-26T11:52:08;16.90;58.10
9919;DHT22;4998;51.024;13.828;2023-03-26T11:54:41;17.00;57.90
9919;DHT22;4998;51.024;13.828;2023-03-26T11:57:19;17.10;57.00
9919;DHT22;4998;51.024;13.828;2023-03-26T11:59:51;17.20;56.20
9919;DHT22;4998;51.024;13.828;2023-03-26T12:02:25;17.30;56.20
9919;DHT22;4998;51.024;13.828;2023-03-26T12:05:12;17.40;55.80
9919;DHT22;4998;51.024;13.828;2023-03-26T12:07:45;17.40;55.20
9919;DHT22;4998;51.024;13.828;2023-03-26T12:10:34;17.40;55.20
9919;DHT22;4998;51.024;13.828;2023-03-26T12:13:22;17.40;55.20
9919;DHT22;4998;51.024;13.828;2023-03-26T12:15:57;17.50;55.00
9919;DHT22;4998;51.024;13.828;2023-03-26T12:18:26;17.50;54.70
9919;DHT22;4998;51.024;13.828;2023-03-26T12:21:05;17.60;55.00
9919;DHT22;4998;51.024;13.828;2023-03-26T12:23:35;17.60;54.40
9919;DHT22;4998;51.024;13.828;2023-03-26T12:26:14;17.60;53.80
9919;DHT22;4998;51.024;13.828;2023-03-26T12:28:47;17.60;53.30
9919;DHT22;4998;51.024;13.828;2023-03-26T12:31:15;17.50;53.10
9919;DHT22;4998;51.024;13.828;2023-03-26T12:33:49;17.50;53.40
9919;DHT22;4998;51.024;13.828;2023-03-26T12:36:21;17.40;53.00
9919;DHT22;4998;51.024;13.828;2023-03-26T12:38:51;17.30;52.80
9919;DHT22;4998;51.024;13.828;2023-03-26T12:41:31;17.30;53.00
9919;DHT22;4998;51.024;13.828;2023-03-26T12:44:20;17.20;52.70
9919;DHT22;4998;51.024;13.828;2023-03-26T12:46:49;17.20;52.60
9919;DHT22;4998;51.024;13.828;2023-03-26T12:49:19;17.10;52.70
9919;DHT22;4998;51.024;13.828;2023-03-26T12:51:50;17.10;52.80
9919;DHT22;4998;51.024;13.828;2023-03-26T12:54:36;17.10;52.50
9919;DHT22;4998;51.024;13.828;2023-03-26T12:57:20;17.00;52.40
9919;DHT22;4998;51.024;13.828;2023-03-26T13:03:15;16.80;52.50
9919;DHT22;4998;51.024;13.828;2023-03-26T13:05:59;16.80;52.60
9919;DHT22;4998;51.024;13.828;2023-03-26T13:08:45;16.80;52.80
9919;DHT22;4998;51.024;13.828;2023-03-26T13:11:25;16.70;52.90
9919;DHT22;4998;51.024;13.828;2023-03-26T13:14:07;16.70;53.10
9919;DHT22;4998;51.024;13.828;2023-03-26T13:16:41;16.70;52.90
9919;DHT22;4998;51.024;13.828;2023-03-26T13:19:15;16.70;53.00
9919;DHT22;4998;51.024;13.828;2023-03-26T13:21:55;16.70;52.90
9919;DHT22;4998;51.024;13.828;2023-03-26T13:24:32;16.70;53.10
9919;DHT22;4998;51.024;13.828;2023-03-26T13:27:21;16.70;53.20
9919;DHT22;4998;51.024;13.828;2023-03-26T13:29:57;16.70;53.30
9919;DHT22;4998;51.024;13.828;2023-03-26T13:32:35;16.80;53.20
9919;DHT22;4998;51.024;13.828;2023-03-26T13:35:15;16.80;53.20
9919;DHT22;4998;51.024;13.828;2023-03-26T13:37:49;16.80;53.10
9919;DHT22;4998;51.024;13.828;2023-03-26T13:40:32;16.80;53.10
9919;DHT22;4998;51.024;13.828;2023-03-26T13:43:17;16.90;53.20
9919;DHT22;4998;51.024;13.828;2023-03-26T13:45:55;16.90;53.20
9919;DHT22;4998;51.024;13.828;2023-03-26T13:48:27;16.90;53.10
9919;DHT22;4998;51.024;13.828;2023-03-26T13:51:01;16.90;53.10
9919;DHT22;4998;51.024;13.828;2023-03-26T13:53:35;16.90;53.20
9919;DHT22;4998;51.024;13.828;2023-03-26T13:56:05;16.90;53.00
9919;DHT22;4998;51.024;13.828;2023-03-26T13:58:40;16.90;53.30
9919;DHT22;4998;51.024;13.828;2023-03-26T14:01:14;17.00;53.80
9919;DHT22;4998;51.024;13.828;2023-03-26T14:03:56;16.90;52.70
9919;DHT22;4998;51.024;13.828;2023-03-26T14:06:33;16.90;52.90
9919;DHT22;4998;51.024;13.828;2023-03-26T14:09:05;16.80;53.10
9919;DHT22;4998;51.024;13.828;2023-03-26T14:11:48;16.80;53.30
9919;DHT22;4998;51.024;13.828;2023-03-26T14:14:30;16.70;53.60
9919;DHT22;4998;51.024;13.828;2023-03-26T14:17:04;16.60;53.80
9919;DHT22;4998;51.024;13.828;2023-03-26T14:22:30;16.40;52.90
9919;DHT22;4998;51.024;13.828;2023-03-26T14:25:18;16.30;53.30
9919;DHT22;4998;51.024;13.828;2023-03-26T14:28:02;16.20;53.60
9919;DHT22;4998;51.024;13.828;2023-03-26T14:31:00;16.10;54.10
9919;DHT22;4998;51.024;13.828;2023-03-26T14:34:01;16.00;54.30
9919;DHT22;4998;51.024;13.828;2023-03-26T14:36:48;15.90;54.60
9919;DHT22;4998;51.024;13.828;2023-03-26T14:39:40;15.70;55.00
9919;DHT22;4998;51.024;13.828;2023-03-26T14:42:18;15.60;55.30
9919;DHT22;4998;51.024;13.828;2023-03-26T14:45:18;15.60;55.70
9919;DHT22;4998;51.024;13.828;2023-03-26T14:48:03;15.50;56.00
9919;DHT22;4998;51.024;13.828;2023-03-26T14:50:52;15.40;56.20
9919;DHT22;4998;51.024;13.828;2023-03-26T14:53:27;15.30;56.40
9919;DHT22;4998;51.024;13.828;2023-03-26T14:56:41;15.20;56.40
9919;DHT22;4998;51.024;13.828;2023-03-26T15:05:44;14.90;57.00
9919;DHT22;4998;51.024;13.828;2023-03-26T15:11:29;14.80;57.20
9919;DHT22;4998;51.024;13.828;2023-03-26T15:14:30;14.80;57.40
9919;DHT22;4998;51.024;13.828;2023-03-26T15:24:03;14.60;57.70
9919;DHT22;4998;51.024;13.828;2023-03-26T15:33:12;14.50;58.50
9919;DHT22;4998;51.024;13.828;2023-03-26T15:36:03;14.50;58.60
9919;DHT22;4998;51.024;13.828;2023-03-26T15:38:50;14.50;58.90
9919;DHT22;4998;51.024;13.828;2023-03-26T15:41:24;14.50;59.00
9919;DHT22;4998;51.024;13.828;2023-03-26T15:44:19;14.50;59.00
9919;DHT22;4998;51.024;13.828;2023-03-26T15:50:00;14.40;58.90
9919;DHT22;4998;51.024;13.828;2023-03-26T15:52:38;14.40;58.80
9919;DHT22;4998;51.024;13.828;2023-03-26T15:55:24;14.20;58.80
9919;DHT22;4998;51.024;13.828;2023-03-26T15:58:05;14.10;59.20
9919;DHT22;4998;51.024;13.828;2023-03-26T16:00:36;14.10;59.70
9919;DHT22;4998;51.024;13.828;2023-03-26T16:03:25;14.00;59.70
9919;DHT22;4998;51.024;13.828;2023-03-26T16:06:22;14.00;59.90
9919;DHT22;4998;51.024;13.828;2023-03-26T16:09:18;14.00;60.40
9919;DHT22;4998;51.024;13.828;2023-03-26T16:11:52;13.90;60.40
9919;DHT22;4998;51.024;13.828;2023-03-26T16:14:21;13.90;60.50
9919;DHT22;4998;51.024;13.828;2023-03-26T16:16:56;13.90;60.60
9919;DHT22;4998;51.024;13.828;2023-03-26T16:19:47;13.90;60.60
9919;DHT22;4998;51.024;13.828;2023-03-26T16:22:40;13.80;60.80
9919;DHT22;4998;51.024;13.828;2023-03-26T16:25:25;13.70;60.80
9919;DHT22;4998;51.024;13.828;2023-03-26T16:28:33;13.70;61.40
9919;DHT22;4998;51.024;13.828;2023-03-26T16:31:21;13.60;61.50
9919;DHT22;4998;51.024;13.828;2023-03-26T16:33:55;13.50;61.60
9919;DHT22;4998;51.024;13.828;2023-03-26T16:36:33;13.50;61.60
9919;DHT22;4998;51.024;13.828;2023-03-26T16:39:21;13.50;62.30
9919;DHT22;4998;51.024;13.828;2023-03-26T16:42:03;13.40;62.70
9919;DHT22;4998;51.024;13.828;2023-03-26T16:44:41;13.40;62.60
9919;DHT22;4998;51.024;13.828;2023-03-26T16:47:20;13.40;63.00
9919;DHT22;4998;51.024;13.828;2023-03-26T16:49:57;13.40;63.70
9919;DHT22;4998;51.024;13.828;2023-03-26T16:52:43;13.40;64.60
9919;DHT22;4998;51.024;13.828;2023-03-26T16:55:27;13.40;64.20
9919;DHT22;4998;51.024;13.828;2023-03-26T16:58:07;13.40;64.40
9919;DHT22;4998;51.024;13.828;2023-03-26T17:00:45;13.40;64.40
9919;DHT22;4998;51.024;13.828;2023-03-26T17:03:30;13.40;64.70
9919;DHT22;4998;51.024;13.828;2023-03-26T17:06:19;13.40;64.90
9919;DHT22;4998;51.024;13.828;2023-03-26T17:09:01;13.40;64.90
9919;DHT22;4998;51.024;13.828;2023-03-26T17:11:46;13.40;65.30
9919;DHT22;4998;51.024;13.828;2023-03-26T17:14:30;13.40;65.70
9919;DHT22;4998;51.024;13.828;2023-03-26T17:17:15;13.40;65.90
9919;DHT22;4998;51.024;13.828;2023-03-26T17:19:52;13.40;66.20
9919;DHT22;4998;51.024;13.828;2023-03-26T17:22:34;13.40;66.10
9919;DHT22;4998;51.024;13.828;2023-03-26T17:25:16;13.30;66.30
9919;DHT22;4998;51.024;13.828;2023-03-26T17:28:04;13.30;66.50
9919;DHT22;4998;51.024;13.828;2023-03-26T17:31:12;13.30;66.60
9919;DHT22;4998;51.024;13.828;2023-03-26T17:33:44;13.30;66.80
9919;DHT22;4998;51.024;13.828;2023-03-26T17:36:29;13.30;66.70
9919;DHT22;4998;51.024;13.828;2023-03-26T17:39:16;13.30;67.30
9919;DHT22;4998;51.024;13.828;2023-03-26T17:41:51;13.30;67.50
9919;DHT22;4998;51.024;13.828;2023-03-26T17:44:45;13.20;67.70
9919;DHT22;4998;51.024;13.828;2023-03-26T17:47:28;13.20;68.40